Time;durP1;ratioP1;P1;durP2;ratioP2;P2;SDS_P1;SDS_P2;PMS_P1;PMS_P2;Temp;Humidity;BMP_temperature;BMP_pressure;BME280_temperature;BME280_humidity;BME280_pressure;Samples;Min_cycle;Max_cycle;Signal;HPM_P1;HPM_P2
2022/12/05 00:01:26;;;;;;;0.75;0.75;;;4.60;99.90;;;;;;5025025;27;20412;-82
2022/12/05 00:03:55;;;;;;;0.70;0.70;;;4.70;99.90;;;;;;5045843;27;20050;-82
2022/12/05 00:06:22;;;;;;;0.70;0.70;;;4.70;99.90;;;;;;5053608;27;20054;-81
2022/12/05 00:08:48;;;;;;;0.70;0.70;;;4.70;99.90;;;;;;5047328;27;20123;-81
2022/12/05 00:11:17;;;;;;;0.70;0.70;;;4.70;99.90;;;;;;5059767;27;20058;-81
2022/12/05 00:13:44;;;;;;;0.70;0.70;;;4.70;99.90;;;;;;5041153;27;20058;-81
2022/12/05 00:16:15;;;;;;;0.70;0.70;;;4.70;99.90;;;;;;5041772;27;20096;-81
2022/12/05 00:18:41;;;;;;;0.70;0.70;;;4.70;99.90;;;;;;5057551;27;20071;-82
2022/12/05 00:21:12;;;;;;;0.70;0.70;;;4.80;99.90;;;;;;5037339;27;20439;-82
2022/12/05 00:23:38;;;;;;;0.70;0.70;;;4.70;99.90;;;;;;5033317;27;20080;-82
2022/12/05 00:26:04;;;;;;;0.70;0.70;;;4.80;99.90;;;;;;5018689;28;20054;-82
2022/12/05 00:28:31;;;;;;;0.70;0.70;;;4.80;99.90;;;;;;5032593;28;20055;-82
2022/12/05 00:31:04;;;;;;;0.70;0.70;;;4.80;99.90;;;;;;5056021;28;20047;-82
2022/12/05 00:33:31;;;;;;;0.70;0.70;;;4.80;99.90;;;;;;5054891;28;20048;-82
2022/12/05 00:36:04;;;;;;;0.70;0.70;;;4.80;99.90;;;;;;5077146;28;20071;-82
2022/12/05 00:38:30;;;;;;;0.70;0.70;;;4.70;99.90;;;;;;5061743;28;20090;-82
2022/12/05 00:41:01;;;;;;;0.70;0.70;;;4.80;99.90;;;;;;5070271;28;20420;-82
2022/12/05 00:43:26;;;;;;;0.70;0.70;;;4.80;99.90;;;;;;5088102;28;20055;-82
2022/12/05 00:45:52;;;;;;;0.70;0.70;;;4.80;99.90;;;;;;5069237;28;20054;-82
2022/12/05 00:48:18;;;;;;;0.70;0.70;;;4.80;99.90;;;;;;5031087;28;20072;-82
2022/12/05 00:50:44;;;;;;;0.77;0.77;;;4.80;99.90;;;;;;5039633;28;20122;-82
2022/12/05 00:53:09;;;;;;;0.70;0.70;;;4.80;99.90;;;;;;5035629;28;20374;-82
2022/12/05 00:55:36;;;;;;;0.70;0.70;;;4.80;99.90;;;;;;5040298;28;20895;-82
2022/12/05 00:58:02;;;;;;;0.70;0.70;;;4.80;99.90;;;;;;5034059;28;20123;-82
2022/12/05 01:00:28;;;;;;;0.70;0.70;;;4.80;99.90;;;;;;5015929;28;20209;-82
2022/12/05 01:02:54;;;;;;;0.70;0.70;;;4.80;99.90;;;;;;5032488;28;20822;-82
2022/12/05 01:05:20;;;;;;;0.70;0.70;;;4.80;99.90;;;;;;5015755;28;20047;-82
2022/12/05 01:07:46;;;;;;;0.70;0.70;;;4.90;99.90;;;;;;5015231;28;20145;-82
2022/12/05 01:10:12;;;;;;;0.70;0.70;;;4.90;99.90;;;;;;5031870;28;20043;-82
2022/12/05 01:12:38;;;;;;;0.70;0.70;;;4.80;99.90;;;;;;5018899;28;20310;-82
2022/12/05 01:15:04;;;;;;;0.70;0.70;;;4.90;99.90;;;;;;5039176;27;20043;-82
2022/12/05 01:17:30;;;;;;;0.70;0.70;;;4.90;99.90;;;;;;5052236;27;20043;-82
2022/12/05 01:19:58;;;;;;;0.70;0.70;;;4.90;99.90;;;;;;5046537;27;20523;-82
2022/12/05 01:22:24;;;;;;;0.70;0.70;;;5.00;99.90;;;;;;5037963;27;20035;-82
2022/12/05 01:24:50;;;;;;;0.70;0.70;;;5.00;99.90;;;;;;5018385;27;20087;-82
2022/12/05 01:27:16;;;;;;;0.70;0.70;;;5.00;99.90;;;;;;5042971;27;20797;-83
2022/12/05 01:29:42;;;;;;;0.70;0.70;;;5.10;99.90;;;;;;5013460;27;21625;-82
2022/12/05 01:32:17;;;;;;;0.80;0.80;;;5.10;99.90;;;;;;5043553;27;21117;-82
2022/12/05 01:34:43;;;;;;;0.70;0.70;;;5.10;99.90;;;;;;5022542;27;20824;-82
2022/12/05 01:37:09;;;;;;;0.70;0.70;;;5.00;99.90;;;;;;5032695;27;20128;-81
2022/12/05 01:39:35;;;;;;;0.70;0.70;;;5.10;99.90;;;;;;5043399;27;20043;-83
2022/12/05 01:42:00;;;;;;;0.70;0.70;;;5.10;99.90;;;;;;5018700;27;20499;-82
2022/12/05 01:44:26;;;;;;;0.70;0.70;;;5.10;99.90;;;;;;5005578;27;20133;-82
2022/12/05 01:46:53;;;;;;;0.70;0.70;;;5.10;99.90;;;;;;5015766;27;20042;-82
2022/12/05 01:49:19;;;;;;;0.70;0.70;;;5.10;99.90;;;;;;5038137;27;20049;-82
2022/12/05 01:51:56;;;;;;;0.70;0.70;;;5.10;99.90;;;;;;5034218;27;20452;-82
2022/12/05 01:54:23;;;;;;;0.70;0.70;;;5.10;99.90;;;;;;5040007;27;20064;-82
2022/12/05 01:56:55;;;;;;;0.70;0.70;;;5.10;99.90;;;;;;5038922;27;20583;-82
2022/12/05 01:59:22;;;;;;;0.70;0.70;;;5.10;99.90;;;;;;5036737;27;20043;-82
2022/12/05 02:01:48;;;;;;;0.70;0.70;;;5.10;99.90;;;;;;5041057;27;21050;-81
2022/12/05 02:04:14;;;;;;;0.70;0.70;;;5.10;99.90;;;;;;5036909;27;20050;-82
2022/12/05 02:06:40;;;;;;;0.60;0.60;;;5.10;99.90;;;;;;5017310;27;20043;-82
2022/12/05 02:09:06;;;;;;;0.60;0.60;;;5.10;99.90;;;;;;5019400;27;21040;-82
2022/12/05 02:11:34;;;;;;;0.70;0.70;;;5.10;99.90;;;;;;5034715;27;20035;-82
2022/12/05 02:14:15;;;;;;;0.70;0.70;;;5.20;99.90;;;;;;5021269;27;20051;-82
2022/12/05 02:17:12;;;;;;;0.70;0.70;;;5.20;99.90;;;;;;5020221;27;20042;-82
2022/12/05 02:20:06;;;;;;;0.70;0.70;;;5.20;99.90;;;;;;5018957;27;20139;-82
2022/12/05 02:22:31;;;;;;;0.70;0.70;;;5.10;99.90;;;;;;5037622;27;20447;-82
2022/12/05 02:25:16;;;;;;;0.65;0.65;;;5.20;99.90;;;;;;5019645;27;20948;-82
2022/12/05 02:28:10;;;;;;;0.70;0.70;;;5.20;99.90;;;;;;5037330;27;20788;-82
2022/12/05 02:30:45;;;;;;;0.70;0.70;;;5.30;99.90;;;;;;5016850;27;20262;-82
2022/12/05 02:33:52;;;;;;;0.70;0.70;;;5.20;99.90;;;;;;5021266;27;20083;-82
2022/12/05 02:36:33;;;;;;;0.70;0.70;;;5.20;99.90;;;;;;5043787;27;20118;-81
2022/12/05 02:39:17;;;;;;;0.70;0.70;;;5.20;99.90;;;;;;5042092;27;20066;-81
2022/12/05 02:42:02;;;;;;;0.70;0.70;;;5.30;99.90;;;;;;5036622;27;20108;-82
2022/12/05 02:44:35;;;;;;;0.70;0.70;;;5.30;99.90;;;;;;5024949;27;20142;-82
2022/12/05 02:47:01;;;;;;;0.70;0.70;;;5.20;99.90;;;;;;5041860;27;20053;-82
2022/12/05 02:49:33;;;;;;;0.70;0.70;;;5.30;99.90;;;;;;5037615;27;20151;-82
2022/12/05 02:52:01;;;;;;;0.70;0.70;;;5.30;99.90;;;;;;5043063;27;20522;-82
2022/12/05 02:54:31;;;;;;;0.70;0.70;;;5.30;99.90;;;;;;5040973;27;20075;-81
2022/12/05 02:56:58;;;;;;;0.70;0.70;;;5.30;99.90;;;;;;5027748;27;20079;-82
2022/12/05 02:59:23;;;;;;;0.70;0.70;;;5.30;99.90;;;;;;4999839;27;20043;-82
2022/12/05 03:01:50;;;;;;;0.70;0.70;;;5.40;99.90;;;;;;5038831;27;20487;-82
2022/12/05 03:04:18;;;;;;;0.70;0.70;;;5.30;99.90;;;;;;5023896;27;20743;-82
2022/12/05 03:06:49;;;;;;;0.80;0.80;;;5.30;99.90;;;;;;5015715;27;20051;-82
2022/12/05 03:09:24;;;;;;;0.70;0.70;;;5.30;99.90;;;;;;5028878;27;20695;-82
2022/12/05 03:12:01;;;;;;;0.70;0.70;;;5.30;99.90;;;;;;5030351;27;20808;-82
2022/12/05 03:14:35;;;;;;;0.70;0.70;;;5.30;99.90;;;;;;5012912;27;20115;-82
2022/12/05 03:17:08;;;;;;;0.70;0.70;;;5.40;99.90;;;;;;5017115;27;20393;-81
2022/12/05 03:19:48;;;;;;;0.68;0.68;;;5.30;99.90;;;;;;5034854;27;20050;-82
2022/12/05 03:22:44;;;;;;;0.70;0.70;;;5.30;99.90;;;;;;5014400;27;20126;-82
2022/12/05 03:25:11;;;;;;;0.70;0.70;;;5.40;99.90;;;;;;5011368;27;20531;-82
2022/12/05 03:27:50;;;;;;;0.73;0.73;;;5.40;99.90;;;;;;5017257;27;20528;-82
2022/12/05 03:30:20;;;;;;;0.70;0.70;;;5.40;99.90;;;;;;5012916;27;20051;-82
2022/12/05 03:32:56;;;;;;;4.20;3.90;;;5.40;99.90;;;;;;5038409;27;21116;-82
2022/12/05 03:35:34;;;;;;;0.70;0.70;;;5.30;99.90;;;;;;5030028;27;20046;-82
2022/12/05 03:38:24;;;;;;;0.70;0.70;;;5.40;99.90;;;;;;5020483;27;20127;-82
2022/12/05 03:41:05;;;;;;;0.70;0.70;;;5.40;99.90;;;;;;5033477;27;20640;-80
2022/12/05 03:43:36;;;;;;;0.70;0.70;;;5.40;99.90;;;;;;5041566;27;20142;-79
2022/12/05 03:46:10;;;;;;;0.70;0.70;;;5.40;99.90;;;;;;5040736;27;20047;-79
2022/12/05 03:49:19;;;;;;;0.70;0.70;;;5.40;99.90;;;;;;5035702;27;20383;-79
2022/12/05 03:52:12;;;;;;;0.68;0.68;;;5.40;99.90;;;;;;5023792;27;20051;-79
2022/12/05 03:54:46;;;;;;;0.70;0.70;;;5.40;99.90;;;;;;5014454;27;20912;-80
2022/12/05 03:57:22;;;;;;;0.60;0.60;;;5.40;99.90;;;;;;5037478;27;20072;-79
2022/12/05 04:00:11;;;;;;;0.70;0.70;;;5.40;99.90;;;;;;5017788;27;20076;-79
2022/12/05 04:03:16;;;;;;;0.70;0.70;;;5.40;99.90;;;;;;5016793;27;20127;-80
2022/12/05 04:05:45;;;;;;;0.60;0.60;;;5.40;99.90;;;;;;5013922;27;21029;-80
2022/12/05 04:08:25;;;;;;;0.70;0.70;;;5.40;99.90;;;;;;5038255;27;20484;-79
2022/12/05 04:10:55;;;;;;;0.70;0.70;;;5.40;99.90;;;;;;5033292;27;20130;-79
2022/12/05 04:13:56;;;;;;;0.70;0.70;;;5.40;99.90;;;;;;5040123;27;20877;-80
2022/12/05 04:22:50;;;;;;;0.60;0.60;;;5.40;99.90;;;;;;4927613;28;20052;-79
2022/12/05 04:25:32;;;;;;;0.70;0.70;;;5.40;99.90;;;;;;4945496;28;20045;-80
2022/12/05 04:28:20;;;;;;;0.70;0.70;;;5.30;99.90;;;;;;5001428;28;20095;-79
2022/12/05 04:31:06;;;;;;;0.70;0.70;;;5.40;99.90;;;;;;5016984;28;20051;-79
2022/12/05 04:33:37;;;;;;;0.70;0.70;;;5.40;99.90;;;;;;5041587;28;20121;-80
2022/12/05 04:36:37;;;;;;;0.70;0.70;;;5.40;99.90;;;;;;5032478;28;20916;-79
2022/12/05 04:39:22;;;;;;;0.70;0.70;;;5.30;99.90;;;;;;5041509;28;20058;-79
2022/12/05 04:41:57;;;;;;;0.70;0.70;;;5.40;99.90;;;;;;5035158;28;20408;-79
2022/12/05 04:44:29;;;;;;;0.60;0.60;;;5.40;99.90;;;;;;5040816;28;20487;-79
2022/12/05 04:46:59;;;;;;;0.68;0.68;;;5.40;99.90;;;;;;5032802;28;20039;-79
2022/12/05 04:49:26;;;;;;;0.70;0.70;;;5.30;99.90;;;;;;5035151;27;20496;-79
2022/12/05 04:51:58;;;;;;;0.70;0.70;;;5.40;99.90;;;;;;5036986;27;20138;-79
2022/12/05 04:54:37;;;;;;;0.70;0.70;;;5.40;99.90;;;;;;5021934;27;20122;-79
2022/12/05 04:57:26;;;;;;;0.70;0.70;;;5.30;99.90;;;;;;5036821;27;20202;-79
2022/12/05 04:59:52;;;;;;;0.70;0.70;;;5.40;99.90;;;;;;5035915;27;20507;-79
2022/12/05 05:02:32;;;;;;;0.60;0.60;;;5.40;99.90;;;;;;5020143;27;21098;-79
2022/12/05 05:05:01;;;;;;;0.70;0.70;;;5.40;99.90;;;;;;5022303;27;20362;-79
2022/12/05 05:07:27;;;;;;;0.70;0.70;;;5.40;99.90;;;;;;5016811;27;20058;-79
2022/12/05 05:09:53;;;;;;;0.70;0.70;;;5.40;99.90;;;;;;5036662;27;20051;-79
2022/12/05 05:12:19;;;;;;;0.60;0.60;;;5.40;99.90;;;;;;5001026;27;20892;-79
2022/12/05 05:14:45;;;;;;;0.77;0.77;;;5.40;99.90;;;;;;5047536;27;20054;-79
2022/12/05 05:17:11;;;;;;;0.70;0.70;;;5.50;99.90;;;;;;5039883;27;20097;-79
2022/12/05 05:19:37;;;;;;;0.70;0.70;;;5.50;99.90;;;;;;5013038;27;20062;-79
2022/12/05 05:22:03;;;;;;;0.70;0.70;;;5.40;99.90;;;;;;5031084;27;20240;-79
2022/12/05 05:24:29;;;;;;;0.70;0.70;;;5.40;99.90;;;;;;5036286;27;20093;-79
2022/12/05 05:26:54;;;;;;;0.70;0.70;;;5.40;99.90;;;;;;4997366;27;20528;-79
2022/12/05 05:29:20;;;;;;;0.70;0.70;;;5.50;99.90;;;;;;5032964;27;20051;-79
2022/12/05 05:31:46;;;;;;;0.70;0.70;;;5.40;99.90;;;;;;5011836;27;20134;-79
2022/12/05 05:34:14;;;;;;;0.70;0.70;;;5.40;99.90;;;;;;5039874;27;20056;-79
2022/12/05 05:36:41;;;;;;;0.70;0.70;;;5.40;99.90;;;;;;5018305;27;21053;-79
2022/12/05 05:39:13;;;;;;;0.70;0.70;;;5.50;99.90;;;;;;5032304;27;20031;-79
2022/12/05 05:41:40;;;;;;;0.80;0.80;;;5.40;99.90;;;;;;5036176;27;20622;-79
2022/12/05 05:44:06;;;;;;;0.70;0.70;;;5.40;99.90;;;;;;5021418;27;20072;-79
2022/12/05 05:46:34;;;;;;;0.70;0.70;;;5.40;99.90;;;;;;5011451;27;20055;-79
2022/12/05 05:48:59;;;;;;;0.70;0.70;;;5.40;99.90;;;;;;5036370;27;20058;-79
2022/12/05 05:51:28;;;;;;;0.70;0.70;;;5.40;99.90;;;;;;5039742;27;20084;-79
2022/12/05 05:53:54;;;;;;;0.70;0.70;;;5.40;99.90;;;;;;5020375;27;20444;-79
2022/12/05 05:56:21;;;;;;;0.70;0.70;;;5.40;99.90;;;;;;5044388;27;20196;-79
2022/12/05 05:58:47;;;;;;;0.70;0.70;;;5.50;99.90;;;;;;5018376;27;20440;-79
2022/12/05 06:01:21;;;;;;;0.70;0.70;;;5.60;99.90;;;;;;5012166;27;20051;-79
2022/12/05 06:03:49;;;;;;;0.70;0.70;;;5.40;99.90;;;;;;5037012;27;20455;-79
2022/12/05 06:06:15;;;;;;;0.70;0.70;;;5.50;99.90;;;;;;5040920;27;20065;-79
2022/12/05 06:08:43;;;;;;;0.70;0.70;;;5.50;99.90;;;;;;5020184;27;20555;-79
2022/12/05 06:11:12;;;;;;;0.70;0.70;;;5.60;99.90;;;;;;5039464;27;20047;-79
2022/12/05 06:13:38;;;;;;;0.70;0.70;;;5.50;99.90;;;;;;5043739;27;20153;-79
2022/12/05 06:16:08;;;;;;;0.60;0.60;;;5.60;99.90;;;;;;5017214;27;20050;-79
2022/12/05 06:18:35;;;;;;;0.80;0.80;;;5.50;99.90;;;;;;5025336;27;20800;-79
2022/12/05 06:21:01;;;;;;;0.70;0.70;;;5.60;99.90;;;;;;5012579;27;20047;-79
2022/12/05 06:23:28;;;;;;;0.70;0.70;;;5.50;99.90;;;;;;5050938;27;20399;-79
2022/12/05 06:25:55;;;;;;;0.80;0.80;;;5.50;99.90;;;;;;5025089;27;20061;-79
2022/12/05 06:28:23;;;;;;;0.70;0.70;;;5.50;99.90;;;;;;5017003;27;20069;-79
2022/12/05 06:30:49;;;;;;;0.70;0.70;;;5.50;99.90;;;;;;5015085;27;20046;-79
2022/12/05 06:33:15;;;;;;;0.70;0.70;;;5.60;99.90;;;;;;5026597;27;20479;-79
2022/12/05 06:35:41;;;;;;;0.70;0.70;;;5.60;99.90;;;;;;5037494;27;20039;-79
2022/12/05 06:38:09;;;;;;;0.70;0.70;;;5.60;99.90;;;;;;5036584;27;20398;-79
2022/12/05 06:40:38;;;;;;;0.70;0.70;;;5.70;99.90;;;;;;5014961;27;20892;-79
2022/12/05 06:43:04;;;;;;;0.70;0.70;;;5.70;99.90;;;;;;5016547;27;20381;-79
2022/12/05 06:45:30;;;;;;;0.70;0.70;;;5.70;99.90;;;;;;5018597;27;20054;-79
2022/12/05 06:47:56;;;;;;;0.70;0.70;;;5.70;99.90;;;;;;5029404;27;20047;-79
2022/12/05 06:50:21;;;;;;;0.70;0.70;;;5.80;99.90;;;;;;5014905;27;20161;-79
2022/12/05 06:52:49;;;;;;;0.70;0.70;;;5.70;99.90;;;;;;5032429;27;20935;-79
2022/12/05 06:55:14;;;;;;;0.73;0.73;;;5.70;99.90;;;;;;5010034;27;20050;-79
2022/12/05 06:57:40;;;;;;;0.70;0.70;;;5.80;99.90;;;;;;5011765;27;20067;-79
2022/12/05 07:02:52;;;;;;;0.70;0.70;;;5.80;99.90;;;;;;5012182;27;20047;-79
2022/12/05 07:05:18;;;;;;;0.70;0.70;;;5.80;99.90;;;;;;5010510;27;20055;-81
2022/12/05 07:07:44;;;;;;;0.70;0.70;;;5.70;99.90;;;;;;5036267;27;20097;-78
2022/12/05 07:10:10;;;;;;;0.70;0.70;;;5.80;99.90;;;;;;5040051;27;20112;-79
2022/12/05 07:12:36;;;;;;;0.70;0.70;;;5.70;99.90;;;;;;5036746;27;20043;-80
2022/12/05 07:15:02;;;;;;;0.70;0.70;;;5.80;99.90;;;;;;5033904;27;20035;-78
2022/12/05 07:17:28;;;;;;;0.70;0.70;;;5.80;99.90;;;;;;5034692;27;20324;-79
2022/12/05 07:19:54;;;;;;;2.55;2.45;;;5.80;99.90;;;;;;5034761;27;20508;-80
2022/12/05 07:22:21;;;;;;;0.70;0.70;;;5.90;99.90;;;;;;5022660;27;20818;-80
2022/12/05 07:24:47;;;;;;;0.70;0.70;;;5.80;99.90;;;;;;5021968;27;20539;-78
2022/12/05 07:27:14;;;;;;;0.70;0.70;;;5.90;99.90;;;;;;5025321;27;20049;-80
2022/12/05 07:29:40;;;;;;;0.60;0.60;;;5.80;99.90;;;;;;5040594;27;20046;-80
2022/12/05 07:32:06;;;;;;;0.70;0.70;;;5.90;99.90;;;;;;5033175;27;20108;-81
2022/12/05 07:34:32;;;;;;;0.70;0.70;;;5.80;99.90;;;;;;5040984;27;20043;-80
2022/12/05 07:36:59;;;;;;;0.70;0.70;;;5.90;99.90;;;;;;5039312;27;20234;-81
2022/12/05 07:39:25;;;;;;;0.70;0.70;;;5.80;99.90;;;;;;4999112;27;20923;-81
2022/12/05 07:41:51;;;;;;;0.70;0.70;;;5.90;99.90;;;;;;5007201;27;20555;-80
2022/12/05 07:44:17;;;;;;;0.80;0.80;;;5.90;99.90;;;;;;5024126;27;20081;-81
2022/12/05 07:46:43;;;;;;;0.70;0.70;;;5.80;99.90;;;;;;5036431;27;20087;-81
2022/12/05 07:49:09;;;;;;;0.70;0.70;;;6.00;99.90;;;;;;5041631;27;20625;-81
2022/12/05 07:51:35;;;;;;;0.70;0.70;;;5.90;99.90;;;;;;5035753;27;20043;-81
2022/12/05 07:54:01;;;;;;;0.70;0.70;;;5.90;99.90;;;;;;5037242;27;20544;-82
2022/12/05 07:56:27;;;;;;;0.75;0.75;;;5.80;99.90;;;;;;4985893;27;20867;-80
2022/12/05 07:58:53;;;;;;;0.73;0.73;;;5.90;99.90;;;;;;5023317;27;20050;-81
2022/12/05 08:01:25;;;;;;;0.70;0.70;;;6.00;99.90;;;;;;5028967;27;20094;-81
2022/12/05 08:03:56;;;;;;;0.70;0.70;;;6.00;99.90;;;;;;5038186;27;20222;-80
2022/12/05 08:06:32;;;;;;;0.70;0.70;;;6.00;99.90;;;;;;5019385;27;20888;-81
2022/12/05 08:08:58;;;;;;;0.70;0.70;;;6.00;99.90;;;;;;5037840;27;20141;-80
2022/12/05 08:11:27;;;;;;;0.70;0.70;;;6.00;99.90;;;;;;5037399;27;20084;-81
2022/12/05 08:13:53;;;;;;;0.70;0.70;;;6.10;99.90;;;;;;5035520;27;20480;-80
2022/12/05 08:16:22;;;;;;;0.70;0.70;;;6.10;99.90;;;;;;5047224;27;20404;-80
2022/12/05 08:18:48;;;;;;;0.70;0.70;;;6.10;99.90;;;;;;4998603;27;20142;-80
2022/12/05 08:21:17;;;;;;;0.70;0.70;;;6.10;99.90;;;;;;5015562;27;20158;-81
2022/12/05 08:23:44;;;;;;;0.70;0.70;;;6.10;99.90;;;;;;5038726;27;20505;-83
2022/12/05 08:26:23;;;;;;;0.70;0.70;;;6.10;99.90;;;;;;5031300;27;20564;-80
2022/12/05 08:29:01;;;;;;;0.70;0.70;;;6.20;99.90;;;;;;5032721;27;20487;-81
2022/12/05 08:31:30;;;;;;;0.70;0.70;;;6.10;99.90;;;;;;5019774;28;20475;-80
2022/12/05 08:33:57;;;;;;;0.70;0.70;;;6.20;99.90;;;;;;5035851;28;20047;-81
2022/12/05 08:36:25;;;;;;;0.70;0.70;;;6.20;99.90;;;;;;5016091;28;20794;-81
2022/12/05 08:38:56;;;;;;;0.70;0.70;;;6.20;99.90;;;;;;5038187;28;20043;-82
2022/12/05 08:41:27;;;;;;;0.70;0.70;;;6.30;99.90;;;;;;5017109;28;20519;-81
2022/12/05 08:43:54;;;;;;;0.70;0.70;;;6.20;99.90;;;;;;5037548;28;20079;-82
2022/12/05 08:46:20;;;;;;;0.70;0.70;;;6.20;99.90;;;;;;5030704;28;20107;-82
2022/12/05 08:48:46;;;;;;;0.70;0.70;;;6.30;99.90;;;;;;5019539;28;20241;-80
2022/12/05 08:51:13;;;;;;;0.70;0.70;;;6.20;99.90;;;;;;5031039;28;20077;-81
2022/12/05 08:53:39;;;;;;;0.70;0.70;;;6.20;99.90;;;;;;5032553;28;20700;-81
2022/12/05 08:56:07;;;;;;;0.70;0.70;;;6.30;99.90;;;;;;5015842;28;20117;-79
2022/12/05 08:58:34;;;;;;;0.70;0.70;;;6.20;99.90;;;;;;5034346;28;20047;-82
2022/12/05 09:01:17;;;;;;;0.73;0.73;;;6.30;99.90;;;;;;5033918;28;20047;-80
2022/12/05 09:03:49;;;;;;;0.70;0.70;;;6.30;99.90;;;;;;5035653;28;20060;-80
2022/12/05 09:06:23;;;;;;;0.70;0.70;;;6.30;99.90;;;;;;5035608;28;20043;-81
2022/12/05 09:08:52;;;;;;;0.70;0.70;;;6.30;99.90;;;;;;5012710;28;20095;-82
2022/12/05 09:11:24;;;;;;;0.70;0.70;;;6.30;99.90;;;;;;5014161;28;20054;-81
2022/12/05 09:13:51;;;;;;;0.70;0.70;;;6.30;99.90;;;;;;5016668;28;20051;-80
2022/12/05 09:16:20;;;;;;;0.70;0.70;;;6.20;99.90;;;;;;5011638;28;20047;-80
2022/12/05 09:18:47;;;;;;;0.70;0.70;;;6.30;99.90;;;;;;5022478;28;20826;-81
2022/12/05 09:21:19;;;;;;;0.70;0.70;;;6.30;99.90;;;;;;5012749;28;20043;-80
2022/12/05 09:23:45;;;;;;;0.70;0.70;;;6.30;99.90;;;;;;5013170;28;20492;-80
2022/12/05 09:26:14;;;;;;;0.70;0.70;;;6.30;99.90;;;;;;5036338;28;20098;-81
2022/12/05 09:28:42;;;;;;;0.70;0.70;;;6.30;99.90;;;;;;5032374;28;20588;-81
2022/12/05 09:31:10;;;;;;;0.70;0.70;;;6.30;99.90;;;;;;5021182;28;20051;-81
2022/12/05 09:33:37;;;;;;;0.60;0.60;;;6.30;99.90;;;;;;5014427;28;20450;-81
2022/12/05 09:36:04;;;;;;;0.70;0.70;;;6.30;99.90;;;;;;4999110;27;20897;-81
2022/12/05 09:38:30;;;;;;;0.70;0.70;;;6.30;99.90;;;;;;5020600;27;20616;-80
2022/12/05 09:41:20;;;;;;;0.70;0.70;;;6.40;99.90;;;;;;5003790;27;20685;-81
2022/12/05 09:44:01;;;;;;;0.77;0.77;;;6.40;99.90;;;;;;5017157;27;20055;-81
2022/12/05 09:46:48;;;;;;;0.70;0.70;;;6.30;99.90;;;;;;5020545;27;20283;-80
2022/12/05 09:49:14;;;;;;;0.70;0.70;;;6.30;99.90;;;;;;5020253;27;20039;-80
2022/12/05 09:51:44;;;;;;;0.70;0.70;;;6.20;99.90;;;;;;5037717;27;20396;-81
2022/12/05 09:54:11;;;;;;;0.73;0.73;;;6.30;99.90;;;;;;5045683;27;20118;-81
2022/12/05 09:56:40;;;;;;;0.70;0.70;;;6.30;99.90;;;;;;5040030;27;20230;-81
2022/12/05 09:59:12;;;;;;;0.70;0.70;;;6.20;99.90;;;;;;5018275;27;20444;-81
2022/12/05 10:01:46;;;;;;;0.70;0.70;;;6.30;99.90;;;;;;5026517;27;20097;-82
2022/12/05 10:04:39;;;;;;;0.70;0.70;;;6.20;99.90;;;;;;5016352;27;20376;-82
2022/12/05 10:07:22;;;;;;;0.70;0.70;;;6.30;99.90;;;;;;5023571;27;22083;-80
2022/12/05 10:10:18;;;;;;;0.70;0.70;;;6.20;99.90;;;;;;5021961;27;20270;-81
2022/12/05 10:13:06;;;;;;;0.70;0.70;;;6.20;99.90;;;;;;5040203;27;20574;-80
2022/12/05 10:15:36;;;;;;;0.70;0.70;;;6.30;99.90;;;;;;5018888;27;20521;-81
2022/12/05 10:18:04;;;;;;;0.70;0.70;;;6.20;99.90;;;;;;5005333;27;20047;-82
2022/12/05 10:20:39;;;;;;;0.70;0.70;;;6.20;99.90;;;;;;4998168;27;20050;-81
2022/12/05 10:23:15;;;;;;;0.70;0.70;;;6.30;99.90;;;;;;5015079;27;20101;-80
2022/12/05 10:25:42;;;;;;;0.70;0.70;;;6.20;99.90;;;;;;5015507;27;20908;-80
2022/12/05 10:28:22;;;;;;;0.70;0.70;;;6.20;99.90;;;;;;5003844;27;20055;-80
2022/12/05 10:30:53;;;;;;;0.60;0.60;;;6.20;99.90;;;;;;5019961;27;20047;-81
2022/12/05 10:33:22;;;;;;;0.70;0.70;;;6.20;99.90;;;;;;5004582;27;20555;-81
2022/12/05 10:35:53;;;;;;;0.70;0.70;;;6.20;99.90;;;;;;5022904;27;20046;-81
2022/12/05 10:38:30;;;;;;;0.70;0.70;;;6.30;99.90;;;;;;5034053;27;20259;-81
2022/12/05 10:41:04;;;;;;;0.80;0.80;;;6.20;99.90;;;;;;5016477;27;20471;-82
2022/12/05 10:43:32;;;;;;;0.70;0.70;;;6.30;99.90;;;;;;5021368;27;20208;-81
2022/12/05 10:45:59;;;;;;;0.70;0.70;;;6.20;99.90;;;;;;5021135;27;20577;-81
2022/12/05 10:48:25;;;;;;;0.70;0.70;;;6.20;99.90;;;;;;5009917;27;20859;-80
2022/12/05 10:50:56;;;;;;;0.70;0.70;;;6.30;99.90;;;;;;5020621;27;20130;-80
2022/12/05 10:53:31;;;;;;;0.70;0.70;;;6.20;99.90;;;;;;5020385;27;20039;-81
2022/12/05 10:55:57;;;;;;;0.70;0.70;;;6.20;99.90;;;;;;5026529;27;20280;-80
2022/12/05 10:58:28;;;;;;;0.60;0.60;;;6.20;99.90;;;;;;5020606;27;20076;-80
2022/12/05 11:01:07;;;;;;;0.60;0.60;;;6.20;99.90;;;;;;5018049;27;20047;-81
2022/12/05 11:03:38;;;;;;;0.60;0.60;;;6.30;99.90;;;;;;5042478;27;20546;-80
2022/12/05 11:06:16;;;;;;;0.70;0.70;;;6.20;99.90;;;;;;5015644;27;20928;-82
2022/12/05 11:08:50;;;;;;;0.70;0.70;;;6.10;99.90;;;;;;5014074;27;20053;-81
2022/12/05 11:11:18;;;;;;;0.60;0.60;;;6.10;99.90;;;;;;5021924;27;20895;-82
2022/12/05 11:14:01;;;;;;;0.70;0.70;;;6.20;99.90;;;;;;5018164;27;20797;-82
2022/12/05 11:16:36;;;;;;;0.70;0.70;;;6.20;99.90;;;;;;5017838;27;20851;-81
2022/12/05 11:19:20;;;;;;;0.70;0.70;;;6.20;99.90;;;;;;5016459;27;20547;-82
2022/12/05 11:21:47;;;;;;;0.70;0.70;;;6.20;99.90;;;;;;4998437;27;20134;-81
2022/12/05 11:24:36;;;;;;;0.68;0.68;;;6.20;99.90;;;;;;5020918;27;20411;-81
2022/12/05 11:27:40;;;;;;;0.70;0.70;;;6.20;99.90;;;;;;5016121;27;20122;-80
2022/12/05 11:30:18;;;;;;;0.80;0.80;;;6.10;99.90;;;;;;4919002;28;20073;-80
2022/12/05 11:32:44;;;;;;;0.70;0.70;;;6.20;99.90;;;;;;4915814;28;20475;-79
2022/12/05 11:35:12;;;;;;;0.70;0.70;;;6.20;99.90;;;;;;4960568;28;20561;-81
2022/12/05 11:37:54;;;;;;;0.70;0.70;;;6.20;99.90;;;;;;4987535;28;20051;-81
2022/12/05 11:41:04;;;;;;;0.70;0.70;;;6.30;99.90;;;;;;4959982;28;20722;-82
2022/12/05 11:43:58;;;;;;;0.70;0.70;;;6.10;99.90;;;;;;4979823;28;20075;-79
2022/12/05 11:46:26;;;;;;;0.70;0.70;;;6.20;99.90;;;;;;4977696;28;20873;-80
2022/12/05 11:49:24;;;;;;;0.80;0.80;;;6.20;99.90;;;;;;5007078;28;20056;-81
2022/12/05 11:51:57;;;;;;;0.70;0.70;;;6.20;99.90;;;;;;4995109;28;20446;-81
2022/12/05 11:54:37;;;;;;;0.70;0.70;;;6.20;99.90;;;;;;4977380;28;20484;-80
2022/12/05 11:57:25;;;;;;;0.70;0.70;;;6.20;99.90;;;;;;4984474;28;21134;-80
2022/12/05 12:00:06;;;;;;;0.70;0.70;;;6.20;99.90;;;;;;4990510;28;20629;-80
2022/12/05 12:02:48;;;;;;;0.70;0.70;;;6.10;99.90;;;;;;4982022;28;20062;-79
2022/12/05 12:05:37;;;;;;;0.70;0.70;;;6.20;99.90;;;;;;4976478;28;20104;-80
2022/12/05 12:08:26;;;;;;;0.70;0.70;;;6.20;99.90;;;;;;4927266;28;20059;-80
2022/12/05 12:11:07;;;;;;;0.70;0.70;;;6.20;99.90;;;;;;4996161;28;20044;-80
2022/12/05 12:14:00;;;;;;;0.70;0.70;;;6.20;99.90;;;;;;4972969;28;20048;-81
2022/12/05 12:16:32;;;;;;;0.70;0.70;;;6.10;99.90;;;;;;4983515;28;20310;-80
2022/12/05 12:19:23;;;;;;;0.70;0.70;;;6.10;99.90;;;;;;4995110;28;20739;-80
2022/12/05 12:21:58;;;;;;;0.70;0.70;;;6.20;99.90;;;;;;4993639;28;20048;-81
2022/12/05 12:24:33;;;;;;;0.70;0.70;;;6.10;99.90;;;;;;4995918;28;20075;-80
2022/12/05 12:27:20;;;;;;;0.70;0.70;;;6.20;99.90;;;;;;4981654;28;20188;-79
2022/12/05 12:30:00;;;;;;;0.70;0.70;;;6.10;99.90;;;;;;5004848;28;20059;-80
2022/12/05 12:32:58;;;;;;;0.70;0.70;;;6.10;99.90;;;;;;5015083;28;20114;-79
2022/12/05 12:35:28;;;;;;;0.70;0.70;;;6.20;99.90;;;;;;5005348;28;20458;-80
2022/12/05 12:38:17;;;;;;;0.70;0.70;;;6.10;99.90;;;;;;4998141;28;20522;-80
2022/12/05 12:40:49;;;;;;;0.70;0.70;;;6.10;99.90;;;;;;5010939;28;20513;-80
2022/12/05 12:43:54;;;;;;;0.70;0.70;;;6.10;99.90;;;;;;5010450;28;20075;-80
2022/12/05 12:46:35;;;;;;;0.70;0.70;;;6.10;99.90;;;;;;4998046;28;20055;-79
2022/12/05 12:49:01;;;;;;;0.60;0.60;;;6.10;99.90;;;;;;5011523;28;20051;-79
2022/12/05 12:51:30;;;;;;;0.70;0.70;;;6.10;99.90;;;;;;5027752;28;20595;-80
2022/12/05 12:53:56;;;;;;;0.70;0.70;;;6.10;99.90;;;;;;5015132;28;20051;-79
2022/12/05 12:56:22;;;;;;;0.70;0.70;;;6.10;99.90;;;;;;5018871;28;20569;-80
2022/12/05 12:59:17;;;;;;;0.70;0.70;;;6.20;99.90;;;;;;5013531;28;20126;-79
2022/12/05 13:02:25;;;;;;;0.70;0.70;;;6.10;99.90;;;;;;5014916;28;20063;-80
2022/12/05 13:05:01;;;;;;;0.70;0.70;;;6.10;99.90;;;;;;4941285;28;20088;-80
2022/12/05 13:07:45;;;;;;;0.70;0.70;;;6.10;99.90;;;;;;5015593;27;20472;-81
2022/12/05 13:10:21;;;;;;;0.77;0.77;;;6.20;99.90;;;;;;4999312;27;20051;-80
2022/12/05 13:12:48;;;;;;;0.70;0.70;;;6.10;99.90;;;;;;5020663;27;20496;-80
2022/12/05 13:15:18;;;;;;;0.70;0.70;;;6.20;99.90;;;;;;4999754;27;20796;-79
2022/12/05 13:17:47;;;;;;;0.70;0.70;;;6.20;99.90;;;;;;5017868;27;20051;-80
2022/12/05 13:20:17;;;;;;;0.70;0.70;;;6.20;99.90;;;;;;5018712;27;20466;-80
2022/12/05 13:22:49;;;;;;;0.70;0.70;;;6.30;99.90;;;;;;5021688;27;20127;-80
2022/12/05 13:25:18;;;;;;;0.70;0.70;;;6.20;99.90;;;;;;5025276;27;20653;-80
2022/12/05 13:28:05;;;;;;;0.70;0.70;;;6.30;99.90;;;;;;5032655;27;20039;-80
2022/12/05 13:30:32;;;;;;;0.70;0.70;;;6.30;99.90;;;;;;5022050;27;20100;-80
2022/12/05 13:33:03;;;;;;;0.70;0.70;;;6.20;99.90;;;;;;5018391;27;20099;-80
2022/12/05 13:43:59;;;;;;;0.70;0.70;;;6.20;99.90;;;;;;5020755;27;20454;-82